sensor_id;sensor_type;location;lat;lon;timestamp;temperature;humidity
11043;DHT22;5574;48.786;10.120;2022-07-15T00:00:00;20.90;63.40
11043;DHT22;5574;48.786;10.120;2022-07-15T00:02:27;20.80;63.90
11043;DHT22;5574;48.786;10.120;2022-07-15T00:04:54;20.80;63.70
11043;DHT22;5574;48.786;10.120;2022-07-15T00:07:21;20.80;64.20
11043;DHT22;5574;48.786;10.120;2022-07-15T00:09:48;20.70;64.50
11043;DHT22;5574;48.786;10.120;2022-07-15T00:12:34;20.60;64.40
11043;DHT22;5574;48.786;10.120;2022-07-15T00:15:01;20.60;65.10
11043;DHT22;5574;48.786;10.120;2022-07-15T00:17:27;20.60;65.40
11043;DHT22;5574;48.786;10.120;2022-07-15T00:19:54;20.60;65.90
11043;DHT22;5574;48.786;10.120;2022-07-15T00:22:21;20.50;64.80
11043;DHT22;5574;48.786;10.120;2022-07-15T00:24:48;20.50;64.70
11043;DHT22;5574;48.786;10.120;2022-07-15T00:27:14;20.40;65.50
11043;DHT22;5574;48.786;10.120;2022-07-15T00:29:43;20.40;64.80
11043;DHT22;5574;48.786;10.120;2022-07-15T00:32:09;20.30;65.30
11043;DHT22;5574;48.786;10.120;2022-07-15T00:34:36;20.30;65.10
11043;DHT22;5574;48.786;10.120;2022-07-15T00:37:03;20.30;65.50
11043;DHT22;5574;48.786;10.120;2022-07-15T00:39:30;20.20;64.00
11043;DHT22;5574;48.786;10.120;2022-07-15T00:41:57;20.20;66.60
11043;DHT22;5574;48.786;10.120;2022-07-15T00:44:24;20.10;65.70
11043;DHT22;5574;48.786;10.120;2022-07-15T00:46:52;20.10;66.30
11043;DHT22;5574;48.786;10.120;2022-07-15T00:49:20;20.00;64.60
11043;DHT22;5574;48.786;10.120;2022-07-15T00:51:49;20.00;66.10
11043;DHT22;5574;48.786;10.120;2022-07-15T00:54:17;19.90;65.90
11043;DHT22;5574;48.786;10.120;2022-07-15T00:56:50;19.90;66.70
11043;DHT22;5574;48.786;10.120;2022-07-15T00:59:17;19.90;64.50
11043;DHT22;5574;48.786;10.120;2022-07-15T01:01:47;19.90;65.30
11043;DHT22;5574;48.786;10.120;2022-07-15T01:04:17;19.80;66.10
11043;DHT22;5574;48.786;10.120;2022-07-15T01:06:44;19.70;66.80
11043;DHT22;5574;48.786;10.120;2022-07-15T01:09:10;19.70;68.00
11043;DHT22;5574;48.786;10.120;2022-07-15T01:11:37;19.60;67.70
11043;DHT22;5574;48.786;10.120;2022-07-15T01:14:04;19.50;68.40
11043;DHT22;5574;48.786;10.120;2022-07-15T01:16:31;19.40;67.50
11043;DHT22;5574;48.786;10.120;2022-07-15T01:18:58;19.40;68.30
11043;DHT22;5574;48.786;10.120;2022-07-15T01:21:26;19.30;68.10
11043;DHT22;5574;48.786;10.120;2022-07-15T01:23:52;19.30;67.70
11043;DHT22;5574;48.786;10.120;2022-07-15T01:26:19;19.20;67.10
11043;DHT22;5574;48.786;10.120;2022-07-15T01:28:47;19.20;68.70
11043;DHT22;5574;48.786;10.120;2022-07-15T01:31:13;19.20;68.10
11043;DHT22;5574;48.786;10.120;2022-07-15T01:33:40;19.10;67.80
11043;DHT22;5574;48.786;10.120;2022-07-15T01:36:07;19.10;68.50
11043;DHT22;5574;48.786;10.120;2022-07-15T01:38:35;19.00;68.30
11043;DHT22;5574;48.786;10.120;2022-07-15T01:41:02;18.90;68.40
11043;DHT22;5574;48.786;10.120;2022-07-15T01:43:29;18.90;69.50
11043;DHT22;5574;48.786;10.120;2022-07-15T01:45:56;18.90;69.10
11043;DHT22;5574;48.786;10.120;2022-07-15T01:48:22;18.90;69.60
11043;DHT22;5574;48.786;10.120;2022-07-15T01:51:07;18.90;69.00
11043;DHT22;5574;48.786;10.120;2022-07-15T01:53:35;18.80;69.90
11043;DHT22;5574;48.786;10.120;2022-07-15T01:56:01;18.70;69.60
11043;DHT22;5574;48.786;10.120;2022-07-15T01:58:28;18.50;69.90
11043;DHT22;5574;48.786;10.120;2022-07-15T02:00:55;18.60;70.80
11043;DHT22;5574;48.786;10.120;2022-07-15T02:03:22;18.50;71.10
11043;DHT22;5574;48.786;10.120;2022-07-15T02:05:48;18.50;71.50
11043;DHT22;5574;48.786;10.120;2022-07-15T02:08:15;18.30;71.80
11043;DHT22;5574;48.786;10.120;2022-07-15T02:10:43;18.30;71.10
11043;DHT22;5574;48.786;10.120;2022-07-15T02:13:13;18.30;71.50
11043;DHT22;5574;48.786;10.120;2022-07-15T02:15:40;18.20;71.30
11043;DHT22;5574;48.786;10.120;2022-07-15T02:18:08;18.10;71.90
11043;DHT22;5574;48.786;10.120;2022-07-15T02:20:36;18.00;72.10
11043;DHT22;5574;48.786;10.120;2022-07-15T02:23:03;17.90;71.90
11043;DHT22;5574;48.786;10.120;2022-07-15T02:25:32;17.90;72.70
11043;DHT22;5574;48.786;10.120;2022-07-15T02:28:02;17.80;72.50
11043;DHT22;5574;48.786;10.120;2022-07-15T02:30:31;17.70;72.20
11043;DHT22;5574;48.786;10.120;2022-07-15T02:32:58;17.70;72.20
11043;DHT22;5574;48.786;10.120;2022-07-15T02:35:25;17.60;73.00
11043;DHT22;5574;48.786;10.120;2022-07-15T02:37:52;17.50;73.60
11043;DHT22;5574;48.786;10.120;2022-07-15T02:40:19;17.50;73.90
11043;DHT22;5574;48.786;10.120;2022-07-15T02:42:47;17.40;74.00
11043;DHT22;5574;48.786;10.120;2022-07-15T02:45:15;17.30;73.10
11043;DHT22;5574;48.786;10.120;2022-07-15T02:47:42;17.30;74.00
11043;DHT22;5574;48.786;10.120;2022-07-15T02:50:09;17.40;74.00
11043;DHT22;5574;48.786;10.120;2022-07-15T02:52:35;17.30;73.50
11043;DHT22;5574;48.786;10.120;2022-07-15T02:55:03;17.20;73.60
11043;DHT22;5574;48.786;10.120;2022-07-15T02:57:29;17.20;73.80
11043;DHT22;5574;48.786;10.120;2022-07-15T02:59:56;17.10;74.10
11043;DHT22;5574;48.786;10.120;2022-07-15T03:02:25;17.10;73.70
11043;DHT22;5574;48.786;10.120;2022-07-15T03:04:52;17.00;74.80
11043;DHT22;5574;48.786;10.120;2022-07-15T03:07:18;16.90;73.90
11043;DHT22;5574;48.786;10.120;2022-07-15T03:09:45;16.90;74.80
11043;DHT22;5574;48.786;10.120;2022-07-15T03:12:12;16.80;74.60
11043;DHT22;5574;48.786;10.120;2022-07-15T03:14:39;16.80;74.90
11043;DHT22;5574;48.786;10.120;2022-07-15T03:17:06;16.70;74.50
11043;DHT22;5574;48.786;10.120;2022-07-15T03:19:34;16.70;74.90
11043;DHT22;5574;48.786;10.120;2022-07-15T03:22:01;16.60;75.80
11043;DHT22;5574;48.786;10.120;2022-07-15T03:24:27;16.70;75.90
11043;DHT22;5574;48.786;10.120;2022-07-15T03:26:54;16.60;75.80
11043;DHT22;5574;48.786;10.120;2022-07-15T03:29:21;16.60;75.80
11043;DHT22;5574;48.786;10.120;2022-07-15T03:31:47;16.60;75.80
11043;DHT22;5574;48.786;10.120;2022-07-15T03:34:14;16.50;75.50
11043;DHT22;5574;48.786;10.120;2022-07-15T03:36:42;16.50;75.60
11043;DHT22;5574;48.786;10.120;2022-07-15T03:39:09;16.40;76.00
11043;DHT22;5574;48.786;10.120;2022-07-15T03:41:36;16.40;75.80
11043;DHT22;5574;48.786;10.120;2022-07-15T03:44:04;16.30;76.50
11043;DHT22;5574;48.786;10.120;2022-07-15T03:46:31;16.40;76.50
11043;DHT22;5574;48.786;10.120;2022-07-15T03:48:59;16.30;76.00
11043;DHT22;5574;48.786;10.120;2022-07-15T03:51:26;16.30;76.90
11043;DHT22;5574;48.786;10.120;2022-07-15T03:53:57;16.30;76.40
11043;DHT22;5574;48.786;10.120;2022-07-15T03:56:24;16.20;76.20
11043;DHT22;5574;48.786;10.120;2022-07-15T03:58:50;16.20;76.80
11043;DHT22;5574;48.786;10.120;2022-07-15T04:01:17;16.20;76.80
11043;DHT22;5574;48.786;10.120;2022-07-15T04:03:44;16.10;76.80
11043;DHT22;5574;48.786;10.120;2022-07-15T04:06:11;16.10;77.70
11043;DHT22;5574;48.786;10.120;2022-07-15T04:08:37;16.10;77.90
11043;DHT22;5574;48.786;10.120;2022-07-15T04:11:06;16.10;77.80
11043;DHT22;5574;48.786;10.120;2022-07-15T04:13:32;16.20;77.70
11043;DHT22;5574;48.786;10.120;2022-07-15T04:15:59;16.20;78.00
11043;DHT22;5574;48.786;10.120;2022-07-15T04:18:26;16.10;78.10
11043;DHT22;5574;48.786;10.120;2022-07-15T04:20:52;16.10;77.90
11043;DHT22;5574;48.786;10.120;2022-07-15T04:23:19;16.10;78.30
11043;DHT22;5574;48.786;10.120;2022-07-15T04:25:46;16.10;78.30
11043;DHT22;5574;48.786;10.120;2022-07-15T04:28:14;16.20;78.50
11043;DHT22;5574;48.786;10.120;2022-07-15T04:30:40;16.20;78.90
11043;DHT22;5574;48.786;10.120;2022-07-15T04:33:07;16.20;78.70
11043;DHT22;5574;48.786;10.120;2022-07-15T04:35:34;16.30;77.70
11043;DHT22;5574;48.786;10.120;2022-07-15T04:38:00;16.30;76.90
11043;DHT22;5574;48.786;10.120;2022-07-15T04:40:27;16.40;77.40
11043;DHT22;5574;48.786;10.120;2022-07-15T04:42:54;16.40;78.20
11043;DHT22;5574;48.786;10.120;2022-07-15T04:45:24;16.50;77.90
11043;DHT22;5574;48.786;10.120;2022-07-15T04:47:50;16.50;75.20
11043;DHT22;5574;48.786;10.120;2022-07-15T04:50:17;16.50;74.80
11043;DHT22;5574;48.786;10.120;2022-07-15T04:53:04;16.60;76.20
11043;DHT22;5574;48.786;10.120;2022-07-15T04:55:31;16.60;75.70
11043;DHT22;5574;48.786;10.120;2022-07-15T04:57:57;16.80;77.80
11043;DHT22;5574;48.786;10.120;2022-07-15T05:00:26;16.80;76.90
11043;DHT22;5574;48.786;10.120;2022-07-15T05:02:53;16.90;75.80
11043;DHT22;5574;48.786;10.120;2022-07-15T05:05:20;17.00;75.50
11043;DHT22;5574;48.786;10.120;2022-07-15T05:07:46;17.00;77.20
11043;DHT22;5574;48.786;10.120;2022-07-15T05:10:13;17.10;76.50
11043;DHT22;5574;48.786;10.120;2022-07-15T05:12:40;17.20;74.60
11043;DHT22;5574;48.786;10.120;2022-07-15T05:15:07;17.30;74.20
11043;DHT22;5574;48.786;10.120;2022-07-15T05:17:39;17.40;74.80
11043;DHT22;5574;48.786;10.120;2022-07-15T05:20:07;17.50;74.20
11043;DHT22;5574;48.786;10.120;2022-07-15T05:22:33;17.60;75.50
11043;DHT22;5574;48.786;10.120;2022-07-15T05:25:00;17.70;74.40
11043;DHT22;5574;48.786;10.120;2022-07-15T05:27:27;17.80;74.00
11043;DHT22;5574;48.786;10.120;2022-07-15T05:29:53;17.90;74.40
11043;DHT22;5574;48.786;10.120;2022-07-15T05:32:20;18.00;74.70
11043;DHT22;5574;48.786;10.120;2022-07-15T05:34:48;18.10;73.30
11043;DHT22;5574;48.786;10.120;2022-07-15T05:37:15;18.10;73.30
11043;DHT22;5574;48.786;10.120;2022-07-15T05:39:42;18.30;73.30
11043;DHT22;5574;48.786;10.120;2022-07-15T05:42:18;18.30;73.60
11043;DHT22;5574;48.786;10.120;2022-07-15T05:44:45;18.50;73.50
11043;DHT22;5574;48.786;10.120;2022-07-15T05:47:12;18.50;72.60
11043;DHT22;5574;48.786;10.120;2022-07-15T05:49:39;18.60;73.20
11043;DHT22;5574;48.786;10.120;2022-07-15T05:52:07;18.70;74.10
11043;DHT22;5574;48.786;10.120;2022-07-15T05:54:34;18.80;72.90
11043;DHT22;5574;48.786;10.120;2022-07-15T05:57:02;18.90;72.70
11043;DHT22;5574;48.786;10.120;2022-07-15T05:59:29;19.00;72.50
11043;DHT22;5574;48.786;10.120;2022-07-15T06:01:57;19.00;74.30
11043;DHT22;5574;48.786;10.120;2022-07-15T06:04:24;19.10;71.90
11043;DHT22;5574;48.786;10.120;2022-07-15T06:06:52;19.10;72.00
11043;DHT22;5574;48.786;10.120;2022-07-15T06:09:20;19.20;72.40
11043;DHT22;5574;48.786;10.120;2022-07-15T06:11:47;19.30;73.20
11043;DHT22;5574;48.786;10.120;2022-07-15T06:14:14;19.50;72.70
11043;DHT22;5574;48.786;10.120;2022-07-15T06:16:41;19.50;72.80
11043;DHT22;5574;48.786;10.120;2022-07-15T06:19:08;19.60;71.40
11043;DHT22;5574;48.786;10.120;2022-07-15T06:21:36;19.70;73.00
11043;DHT22;5574;48.786;10.120;2022-07-15T06:24:02;19.90;74.70
11043;DHT22;5574;48.786;10.120;2022-07-15T06:26:30;19.90;72.70
11043;DHT22;5574;48.786;10.120;2022-07-15T06:28:57;20.10;73.70
11043;DHT22;5574;48.786;10.120;2022-07-15T06:31:24;20.20;73.60
11043;DHT22;5574;48.786;10.120;2022-07-15T06:33:50;20.30;73.70
11043;DHT22;5574;48.786;10.120;2022-07-15T06:36:17;20.40;74.70
11043;DHT22;5574;48.786;10.120;2022-07-15T06:38:44;20.50;73.90
11043;DHT22;5574;48.786;10.120;2022-07-15T06:41:11;20.60;72.20
11043;DHT22;5574;48.786;10.120;2022-07-15T06:43:39;20.70;73.50
11043;DHT22;5574;48.786;10.120;2022-07-15T06:46:06;20.90;72.50
11043;DHT22;5574;48.786;10.120;2022-07-15T06:48:33;20.90;70.70
11043;DHT22;5574;48.786;10.120;2022-07-15T06:50:59;21.10;72.50
11043;DHT22;5574;48.786;10.120;2022-07-15T06:53:26;21.00;67.20
11043;DHT22;5574;48.786;10.120;2022-07-15T06:55:53;21.10;67.10
11043;DHT22;5574;48.786;10.120;2022-07-15T06:58:19;21.20;66.60
11043;DHT22;5574;48.786;10.120;2022-07-15T07:00:47;21.30;67.20
11043;DHT22;5574;48.786;10.120;2022-07-15T07:03:14;21.20;64.50
11043;DHT22;5574;48.786;10.120;2022-07-15T07:05:41;21.20;61.90
11043;DHT22;5574;48.786;10.120;2022-07-15T07:08:07;21.20;62.10
11043;DHT22;5574;48.786;10.120;2022-07-15T07:10:34;21.30;60.30
11043;DHT22;5574;48.786;10.120;2022-07-15T07:13:01;21.40;64.00
11043;DHT22;5574;48.786;10.120;2022-07-15T07:15:27;21.50;62.80
11043;DHT22;5574;48.786;10.120;2022-07-15T07:17:55;21.50;60.90
11043;DHT22;5574;48.786;10.120;2022-07-15T07:20:22;21.60;61.20
11043;DHT22;5574;48.786;10.120;2022-07-15T07:22:49;21.80;60.10
11043;DHT22;5574;48.786;10.120;2022-07-15T07:25:16;21.90;60.40
11043;DHT22;5574;48.786;10.120;2022-07-15T07:27:42;22.00;61.40
11043;DHT22;5574;48.786;10.120;2022-07-15T07:30:09;22.10;59.70
11043;DHT22;5574;48.786;10.120;2022-07-15T07:32:36;22.10;59.80
11043;DHT22;5574;48.786;10.120;2022-07-15T07:35:04;22.30;61.60
11043;DHT22;5574;48.786;10.120;2022-07-15T07:37:33;22.40;60.50
11043;DHT22;5574;48.786;10.120;2022-07-15T07:40:00;22.40;59.80
11043;DHT22;5574;48.786;10.120;2022-07-15T07:42:27;22.50;59.60
11043;DHT22;5574;48.786;10.120;2022-07-15T07:44:54;22.50;58.30
11043;DHT22;5574;48.786;10.120;2022-07-15T07:47:20;22.60;62.10
11043;DHT22;5574;48.786;10.120;2022-07-15T07:49:47;22.60;58.40
11043;DHT22;5574;48.786;10.120;2022-07-15T07:52:15;22.80;58.60
11043;DHT22;5574;48.786;10.120;2022-07-15T07:54:42;22.90;59.10
11043;DHT22;5574;48.786;10.120;2022-07-15T07:57:09;23.00;58.10
11043;DHT22;5574;48.786;10.120;2022-07-15T07:59:36;23.00;58.00
11043;DHT22;5574;48.786;10.120;2022-07-15T08:02:03;23.10;58.30
11043;DHT22;5574;48.786;10.120;2022-07-15T08:04:30;23.10;57.20
11043;DHT22;5574;48.786;10.120;2022-07-15T08:06:57;23.20;57.60
11043;DHT22;5574;48.786;10.120;2022-07-15T08:09:25;23.20;57.80
11043;DHT22;5574;48.786;10.120;2022-07-15T08:11:52;23.30;57.80
11043;DHT22;5574;48.786;10.120;2022-07-15T08:14:19;23.40;56.80
11043;DHT22;5574;48.786;10.120;2022-07-15T08:16:46;23.30;55.80
11043;DHT22;5574;48.786;10.120;2022-07-15T08:19:12;23.30;54.80
11043;DHT22;5574;48.786;10.120;2022-07-15T08:21:41;23.40;56.20
11043;DHT22;5574;48.786;10.120;2022-07-15T08:24:08;23.50;56.40
11043;DHT22;5574;48.786;10.120;2022-07-15T08:26:37;23.60;55.50
11043;DHT22;5574;48.786;10.120;2022-07-15T08:29:04;23.70;55.20
11043;DHT22;5574;48.786;10.120;2022-07-15T08:31:31;23.70;56.50
11043;DHT22;5574;48.786;10.120;2022-07-15T08:33:58;23.90;56.50
11043;DHT22;5574;48.786;10.120;2022-07-15T08:36:25;24.00;55.40
11043;DHT22;5574;48.786;10.120;2022-07-15T08:38:51;24.10;55.50
11043;DHT22;5574;48.786;10.120;2022-07-15T08:41:18;24.30;54.70
11043;DHT22;5574;48.786;10.120;2022-07-15T08:43:46;24.30;56.10
11043;DHT22;5574;48.786;10.120;2022-07-15T08:46:14;24.50;54.70
11043;DHT22;5574;48.786;10.120;2022-07-15T08:48:49;24.70;55.50
11043;DHT22;5574;48.786;10.120;2022-07-15T08:51:18;24.80;55.00
11043;DHT22;5574;48.786;10.120;2022-07-15T08:53:48;24.90;55.30
11043;DHT22;5574;48.786;10.120;2022-07-15T08:56:17;24.80;55.00
11043;DHT22;5574;48.786;10.120;2022-07-15T08:58:46;25.00;55.20
11043;DHT22;5574;48.786;10.120;2022-07-15T09:01:12;25.10;54.30
11043;DHT22;5574;48.786;10.120;2022-07-15T09:03:39;25.10;54.10
11043;DHT22;5574;48.786;10.120;2022-07-15T09:06:06;25.20;54.10
11043;DHT22;5574;48.786;10.120;2022-07-15T09:08:33;25.30;54.00
11043;DHT22;5574;48.786;10.120;2022-07-15T09:11:01;25.30;54.30
11043;DHT22;5574;48.786;10.120;2022-07-15T09:13:30;25.40;53.70
11043;DHT22;5574;48.786;10.120;2022-07-15T09:16:00;25.50;53.40
11043;DHT22;5574;48.786;10.120;2022-07-15T09:18:29;25.60;53.90
11043;DHT22;5574;48.786;10.120;2022-07-15T09:20:57;25.70;52.40
11043;DHT22;5574;48.786;10.120;2022-07-15T09:23:26;25.70;54.40
11043;DHT22;5574;48.786;10.120;2022-07-15T09:25:57;25.80;52.40
11043;DHT22;5574;48.786;10.120;2022-07-15T09:28:36;25.70;53.20
11043;DHT22;5574;48.786;10.120;2022-07-15T09:31:05;25.60;53.00
11043;DHT22;5574;48.786;10.120;2022-07-15T09:33:51;25.60;52.50
11043;DHT22;5574;48.786;10.120;2022-07-15T09:36:25;25.60;52.80
11043;DHT22;5574;48.786;10.120;2022-07-15T09:38:53;25.50;52.70
11043;DHT22;5574;48.786;10.120;2022-07-15T09:41:27;25.40;52.90
11043;DHT22;5574;48.786;10.120;2022-07-15T09:43:57;25.50;53.50
11043;DHT22;5574;48.786;10.120;2022-07-15T09:46:27;25.50;53.70
11043;DHT22;5574;48.786;10.120;2022-07-15T09:48:54;25.60;53.80
11043;DHT22;5574;48.786;10.120;2022-07-15T09:51:23;25.90;55.30
11043;DHT22;5574;48.786;10.120;2022-07-15T09:53:50;25.80;52.70
11043;DHT22;5574;48.786;10.120;2022-07-15T09:56:19;26.00;52.60
11043;DHT22;5574;48.786;10.120;2022-07-15T09:58:51;25.90;53.20
11043;DHT22;5574;48.786;10.120;2022-07-15T10:01:18;25.40;52.90
11043;DHT22;5574;48.786;10.120;2022-07-15T10:03:46;25.70;53.60
11043;DHT22;5574;48.786;10.120;2022-07-15T10:06:15;25.80;54.70
11043;DHT22;5574;48.786;10.120;2022-07-15T10:08:46;26.10;52.70
11043;DHT22;5574;48.786;10.120;2022-07-15T10:11:14;26.20;54.80
11043;DHT22;5574;48.786;10.120;2022-07-15T10:14:18;26.20;54.00
11043;DHT22;5574;48.786;10.120;2022-07-15T10:17:13;26.20;52.70
11043;DHT22;5574;48.786;10.120;2022-07-15T10:22:53;26.10;53.40
11043;DHT22;5574;48.786;10.120;2022-07-15T10:25:30;26.30;52.40
11043;DHT22;5574;48.786;10.120;2022-07-15T10:28:03;26.40;52.10
11043;DHT22;5574;48.786;10.120;2022-07-15T10:30:31;26.60;52.10
11043;DHT22;5574;48.786;10.120;2022-07-15T10:33:09;26.30;50.80
11043;DHT22;5574;48.786;10.120;2022-07-15T10:35:44;25.80;52.00
11043;DHT22;5574;48.786;10.120;2022-07-15T10:38:29;25.60;52.30
11043;DHT22;5574;48.786;10.120;2022-07-15T10:41:01;25.80;55.30
11043;DHT22;5574;48.786;10.120;2022-07-15T10:43:42;26.30;53.00
11043;DHT22;5574;48.786;10.120;2022-07-15T10:46:21;26.60;51.30
11043;DHT22;5574;48.786;10.120;2022-07-15T10:48:49;26.70;52.10
11043;DHT22;5574;48.786;10.120;2022-07-15T10:51:45;26.80;51.40
11043;DHT22;5574;48.786;10.120;2022-07-15T10:54:40;26.90;51.90
11043;DHT22;5574;48.786;10.120;2022-07-15T10:57:08;27.10;51.10
11043;DHT22;5574;48.786;10.120;2022-07-15T10:59:37;27.30;50.70
11043;DHT22;5574;48.786;10.120;2022-07-15T11:02:15;27.40;49.90
11043;DHT22;5574;48.786;10.120;2022-07-15T11:04:43;27.30;49.80
11043;DHT22;5574;48.786;10.120;2022-07-15T11:07:30;27.30;49.60
11043;DHT22;5574;48.786;10.120;2022-07-15T11:10:15;27.50;50.50
11043;DHT22;5574;48.786;10.120;2022-07-15T11:12:58;27.50;48.60
11043;DHT22;5574;48.786;10.120;2022-07-15T11:15:26;27.40;48.30
11043;DHT22;5574;48.786;10.120;2022-07-15T11:17:55;27.20;48.80
11043;DHT22;5574;48.786;10.120;2022-07-15T11:20:26;27.30;49.10
11043;DHT22;5574;48.786;10.120;2022-07-15T11:22:55;27.40;48.40
11043;DHT22;5574;48.786;10.120;2022-07-15T11:25:24;27.50;48.90
11043;DHT22;5574;48.786;10.120;2022-07-15T11:27:55;27.60;49.70
11043;DHT22;5574;48.786;10.120;2022-07-15T11:30:23;27.80;48.60
11043;DHT22;5574;48.786;10.120;2022-07-15T11:32:54;28.00;46.60
11043;DHT22;5574;48.786;10.120;2022-07-15T11:35:21;28.00;46.90
11043;DHT22;5574;48.786;10.120;2022-07-15T11:37:48;28.20;46.30
11043;DHT22;5574;48.786;10.120;2022-07-15T11:40:23;28.20;46.50
11043;DHT22;5574;48.786;10.120;2022-07-15T11:43:12;28.20;45.40
11043;DHT22;5574;48.786;10.120;2022-07-15T11:45:57;28.40;46.30
11043;DHT22;5574;48.786;10.120;2022-07-15T11:48:23;28.20;45.60
11043;DHT22;5574;48.786;10.120;2022-07-15T11:50:52;28.40;46.40
11043;DHT22;5574;48.786;10.120;2022-07-15T11:53:20;28.30;45.70
11043;DHT22;5574;48.786;10.120;2022-07-15T11:55:50;28.40;45.90
11043;DHT22;5574;48.786;10.120;2022-07-15T11:58:25;28.50;45.40
11043;DHT22;5574;48.786;10.120;2022-07-15T12:00:52;28.50;46.10
11043;DHT22;5574;48.786;10.120;2022-07-15T12:03:19;28.40;46.70
11043;DHT22;5574;48.786;10.120;2022-07-15T12:05:59;28.40;46.80
11043;DHT22;5574;48.786;10.120;2022-07-15T12:08:37;28.60;46.60
11043;DHT22;5574;48.786;10.120;2022-07-15T12:11:17;28.70;45.00
11043;DHT22;5574;48.786;10.120;2022-07-15T12:13:46;28.50;45.50
11043;DHT22;5574;48.786;10.120;2022-07-15T12:16:14;28.60;46.00
11043;DHT22;5574;48.786;10.120;2022-07-15T12:18:44;28.60;45.50
11043;DHT22;5574;48.786;10.120;2022-07-15T12:21:11;28.70;44.50
11043;DHT22;5574;48.786;10.120;2022-07-15T12:23:38;28.90;46.10
11043;DHT22;5574;48.786;10.120;2022-07-15T12:26:07;28.90;45.20
11043;DHT22;5574;48.786;10.120;2022-07-15T12:28:36;28.30;44.40
11043;DHT22;5574;48.786;10.120;2022-07-15T12:31:04;28.30;46.90
11043;DHT22;5574;48.786;10.120;2022-07-15T12:33:34;28.50;47.60
11043;DHT22;5574;48.786;10.120;2022-07-15T12:36:16;28.60;48.20
11043;DHT22;5574;48.786;10.120;2022-07-15T12:38:43;28.70;48.00
11043;DHT22;5574;48.786;10.120;2022-07-15T12:41:21;28.80;46.60
11043;DHT22;5574;48.786;10.120;2022-07-15T12:43:52;29.00;47.10
11043;DHT22;5574;48.786;10.120;2022-07-15T12:46:20;29.10;45.80
11043;DHT22;5574;48.786;10.120;2022-07-15T12:48:47;28.60;46.30
11043;DHT22;5574;48.786;10.120;2022-07-15T12:51:15;28.50;46.90
11043;DHT22;5574;48.786;10.120;2022-07-15T12:53:42;28.30;46.90
11043;DHT22;5574;48.786;10.120;2022-07-15T12:56:09;27.80;47.20
11043;DHT22;5574;48.786;10.120;2022-07-15T12:58:36;27.50;48.10
11043;DHT22;5574;48.786;10.120;2022-07-15T13:01:07;27.80;48.10
11043;DHT22;5574;48.786;10.120;2022-07-15T13:03:35;28.00;47.30
11043;DHT22;5574;48.786;10.120;2022-07-15T13:06:02;28.20;46.70
11043;DHT22;5574;48.786;10.120;2022-07-15T13:08:31;28.40;45.40
11043;DHT22;5574;48.786;10.120;2022-07-15T13:11:00;28.40;43.00
11043;DHT22;5574;48.786;10.120;2022-07-15T13:13:29;28.20;44.20
11043;DHT22;5574;48.786;10.120;2022-07-15T13:15:56;28.20;44.00
11043;DHT22;5574;48.786;10.120;2022-07-15T13:18:26;28.40;43.60
11043;DHT22;5574;48.786;10.120;2022-07-15T13:20:54;28.70;44.40
11043;DHT22;5574;48.786;10.120;2022-07-15T13:23:21;28.60;42.70
11043;DHT22;5574;48.786;10.120;2022-07-15T13:25:48;28.40;44.40
11043;DHT22;5574;48.786;10.120;2022-07-15T13:28:17;28.50;45.00
11043;DHT22;5574;48.786;10.120;2022-07-15T13:30:44;28.70;45.10
11043;DHT22;5574;48.786;10.120;2022-07-15T13:33:11;28.60;46.60
11043;DHT22;5574;48.786;10.120;2022-07-15T13:35:39;28.50;46.40
11043;DHT22;5574;48.786;10.120;2022-07-15T13:38:06;28.70;44.90
11043;DHT22;5574;48.786;10.120;2022-07-15T13:40:33;28.40;45.40
11043;DHT22;5574;48.786;10.120;2022-07-15T13:42:59;28.50;45.50
11043;DHT22;5574;48.786;10.120;2022-07-15T13:45:26;28.60;46.20
11043;DHT22;5574;48.786;10.120;2022-07-15T13:47:53;28.60;44.60
11043;DHT22;5574;48.786;10.120;2022-07-15T13:50:20;28.50;44.80
11043;DHT22;5574;48.786;10.120;2022-07-15T13:53:06;28.20;44.20
11043;DHT22;5574;48.786;10.120;2022-07-15T13:55:33;27.90;45.60
11043;DHT22;5574;48.786;10.120;2022-07-15T13:57:59;27.50;45.90
11043;DHT22;5574;48.786;10.120;2022-07-15T14:00:26;27.70;46.50
11043;DHT22;5574;48.786;10.120;2022-07-15T14:02:54;27.50;46.20
11043;DHT22;5574;48.786;10.120;2022-07-15T14:05:22;27.10;45.70
11043;DHT22;5574;48.786;10.120;2022-07-15T14:07:49;26.90;47.00
11043;DHT22;5574;48.786;10.120;2022-07-15T14:10:17;26.90;48.10
11043;DHT22;5574;48.786;10.120;2022-07-15T14:12:44;27.30;47.10
11043;DHT22;5574;48.786;10.120;2022-07-15T14:15:11;27.70;49.00
11043;DHT22;5574;48.786;10.120;2022-07-15T14:17:38;27.90;45.80
11043;DHT22;5574;48.786;10.120;2022-07-15T14:20:06;28.10;47.00
11043;DHT22;5574;48.786;10.120;2022-07-15T14:22:33;28.20;47.00
11043;DHT22;5574;48.786;10.120;2022-07-15T14:25:00;28.50;47.20
11043;DHT22;5574;48.786;10.120;2022-07-15T14:27:28;28.50;45.40
11043;DHT22;5574;48.786;10.120;2022-07-15T14:29:55;28.60;46.30
11043;DHT22;5574;48.786;10.120;2022-07-15T14:32:22;28.60;46.40
11043;DHT22;5574;48.786;10.120;2022-07-15T14:34:48;28.40;45.40
11043;DHT22;5574;48.786;10.120;2022-07-15T14:37:15;28.40;46.30
11043;DHT22;5574;48.786;10.120;2022-07-15T14:39:42;28.40;46.40
11043;DHT22;5574;48.786;10.120;2022-07-15T14:42:09;28.50;46.00
11043;DHT22;5574;48.786;10.120;2022-07-15T14:44:37;28.50;46.40
11043;DHT22;5574;48.786;10.120;2022-07-15T14:47:04;28.30;45.80
11043;DHT22;5574;48.786;10.120;2022-07-15T14:49:31;28.10;46.40
11043;DHT22;5574;48.786;10.120;2022-07-15T14:51:57;27.70;46.30
11043;DHT22;5574;48.786;10.120;2022-07-15T14:54:24;27.60;47.80
11043;DHT22;5574;48.786;10.120;2022-07-15T14:56:51;27.30;48.50
11043;DHT22;5574;48.786;10.120;2022-07-15T14:59:17;27.10;48.40
11043;DHT22;5574;48.786;10.120;2022-07-15T15:01:45;27.10;48.60
11043;DHT22;5574;48.786;10.120;2022-07-15T15:04:12;27.30;47.90
11043;DHT22;5574;48.786;10.120;2022-07-15T15:06:39;27.50;48.20
11043;DHT22;5574;48.786;10.120;2022-07-15T15:09:05;27.40;47.70
11043;DHT22;5574;48.786;10.120;2022-07-15T15:11:32;27.50;49.10
11043;DHT22;5574;48.786;10.120;2022-07-15T15:13:59;27.70;47.70
11043;DHT22;5574;48.786;10.120;2022-07-15T15:16:27;27.60;46.70
11043;DHT22;5574;48.786;10.120;2022-07-15T15:18:55;27.70;47.80
11043;DHT22;5574;48.786;10.120;2022-07-15T15:21:21;27.70;47.70
11043;DHT22;5574;48.786;10.120;2022-07-15T15:23:48;27.50;47.00
11043;DHT22;5574;48.786;10.120;2022-07-15T15:26:15;27.60;48.60
11043;DHT22;5574;48.786;10.120;2022-07-15T15:28:48;27.50;47.80
11043;DHT22;5574;48.786;10.120;2022-07-15T15:31:15;27.40;48.30
11043;DHT22;5574;48.786;10.120;2022-07-15T15:33:42;27.40;48.20
11043;DHT22;5574;48.786;10.120;2022-07-15T15:36:10;27.30;48.50
11043;DHT22;5574;48.786;10.120;2022-07-15T15:38:36;27.30;48.30
11043;DHT22;5574;48.786;10.120;2022-07-15T15:41:03;27.20;48.70